Terminal Aerodrome Forecast
Issued by NWS

Home | Current Version | Previous Version | Text Only | Print | Product List | Glossary On
Versions: 1 2 3 4 5 6 7 8 9 10 11 12 13 14 15 16 17 18 19 20 21
000
FTUS46 KLOX 162300 RRA
TAFSBP
TAF
KSBP 162351Z 1700/1724 31015G25KT P6SM SCT250
     FM170300 31008KT P6SM SCT250
     FM171100 VRB04KT 6SM BR SCT004
     FM171600 31006KT P6SM SKC
     FM172000 31015G25KT P6SM FEW100=

USA.gov is the U.S. government's official web portal to all federal, state and local government web resources and services.